sensor_id;sensor_type;location;lat;lon;timestamp;P1;durP1;ratioP1;P2;durP2;ratioP2
34573;SDS011;20809;49.594;8.734;2023-01-15T00:00:59;0.28;;;0.25;;
34573;SDS011;20809;49.594;8.734;2023-01-15T00:04:00;0.45;;;0.30;;
34573;SDS011;20809;49.594;8.734;2023-01-15T00:07:05;0.70;;;0.50;;
34573;SDS011;20809;49.594;8.734;2023-01-15T00:10:15;0.20;;;0.20;;
34573;SDS011;20809;49.594;8.734;2023-01-15T00:13:16;0.30;;;0.30;;
34573;SDS011;20809;49.594;8.734;2023-01-15T00:16:18;0.23;;;0.20;;
34573;SDS011;20809;49.594;8.734;2023-01-15T00:19:21;0.40;;;0.40;;
34573;SDS011;20809;49.594;8.734;2023-01-15T00:22:22;0.60;;;0.30;;
34573;SDS011;20809;49.594;8.734;2023-01-15T00:25:22;3.17;;;0.32;;
34573;SDS011;20809;49.594;8.734;2023-01-15T00:28:41;0.30;;;0.22;;
34573;SDS011;20809;49.594;8.734;2023-01-15T00:31:42;3.10;;;0.30;;
34573;SDS011;20809;49.594;8.734;2023-01-15T00:34:50;0.93;;;0.22;;
34573;SDS011;20809;49.594;8.734;2023-01-15T00:37:50;0.50;;;0.30;;
34573;SDS011;20809;49.594;8.734;2023-01-15T00:40:51;0.73;;;0.57;;
34573;SDS011;20809;49.594;8.734;2023-01-15T00:43:52;0.63;;;0.23;;
34573;SDS011;20809;49.594;8.734;2023-01-15T00:46:52;1.25;;;0.30;;
34573;SDS011;20809;49.594;8.734;2023-01-15T00:49:53;1.67;;;1.15;;
34573;SDS011;20809;49.594;8.734;2023-01-15T00:52:54;2.65;;;0.40;;
34573;SDS011;20809;49.594;8.734;2023-01-15T00:55:54;0.53;;;0.30;;
34573;SDS011;20809;49.594;8.734;2023-01-15T00:58:55;0.22;;;0.20;;
34573;SDS011;20809;49.594;8.734;2023-01-15T01:01:56;0.50;;;0.28;;
34573;SDS011;20809;49.594;8.734;2023-01-15T01:04:57;0.88;;;0.40;;
34573;SDS011;20809;49.594;8.734;2023-01-15T01:07:57;0.52;;;0.32;;
34573;SDS011;20809;49.594;8.734;2023-01-15T01:14:02;0.30;;;0.30;;
34573;SDS011;20809;49.594;8.734;2023-01-15T01:17:03;0.52;;;0.50;;
34573;SDS011;20809;49.594;8.734;2023-01-15T01:20:03;0.37;;;0.30;;
34573;SDS011;20809;49.594;8.734;2023-01-15T01:23:04;0.38;;;0.38;;
34573;SDS011;20809;49.594;8.734;2023-01-15T01:26:05;0.43;;;0.35;;
34573;SDS011;20809;49.594;8.734;2023-01-15T01:29:06;0.40;;;0.38;;
34573;SDS011;20809;49.594;8.734;2023-01-15T01:32:06;0.75;;;0.25;;
34573;SDS011;20809;49.594;8.734;2023-01-15T01:35:07;2.00;;;0.65;;
34573;SDS011;20809;49.594;8.734;2023-01-15T01:38:09;1.35;;;0.30;;
34573;SDS011;20809;49.594;8.734;2023-01-15T01:41:09;0.88;;;0.40;;
34573;SDS011;20809;49.594;8.734;2023-01-15T01:47:36;0.52;;;0.38;;
34573;SDS011;20809;49.594;8.734;2023-01-15T01:50:37;1.75;;;0.40;;
34573;SDS011;20809;49.594;8.734;2023-01-15T01:53:39;0.20;;;0.20;;
34573;SDS011;20809;49.594;8.734;2023-01-15T01:59:07;0.38;;;0.22;;
34573;SDS011;20809;49.594;8.734;2023-01-15T02:02:08;0.30;;;0.20;;
34573;SDS011;20809;49.594;8.734;2023-01-15T02:05:10;0.35;;;0.20;;
34573;SDS011;20809;49.594;8.734;2023-01-15T02:11:22;1.25;;;0.28;;
34573;SDS011;20809;49.594;8.734;2023-01-15T02:14:38;0.98;;;0.20;;
34573;SDS011;20809;49.594;8.734;2023-01-15T02:21:12;0.20;;;0.20;;
34573;SDS011;20809;49.594;8.734;2023-01-15T02:27:30;0.60;;;0.20;;
34573;SDS011;20809;49.594;8.734;2023-01-15T02:34:01;0.80;;;0.30;;
34573;SDS011;20809;49.594;8.734;2023-01-15T02:37:09;1.50;;;0.30;;
34573;SDS011;20809;49.594;8.734;2023-01-15T02:40:15;0.68;;;0.32;;
34573;SDS011;20809;49.594;8.734;2023-01-15T02:43:19;0.73;;;0.20;;
34573;SDS011;20809;49.594;8.734;2023-01-15T02:46:22;0.40;;;0.20;;
34573;SDS011;20809;49.594;8.734;2023-01-15T02:49:27;0.40;;;0.22;;
34573;SDS011;20809;49.594;8.734;2023-01-15T02:52:30;0.30;;;0.30;;
34573;SDS011;20809;49.594;8.734;2023-01-15T02:55:37;0.82;;;0.47;;
34573;SDS011;20809;49.594;8.734;2023-01-15T02:58:42;1.80;;;0.30;;
34573;SDS011;20809;49.594;8.734;2023-01-15T03:01:45;0.55;;;0.47;;
34573;SDS011;20809;49.594;8.734;2023-01-15T03:05:01;1.30;;;0.70;;
34573;SDS011;20809;49.594;8.734;2023-01-15T03:08:02;1.98;;;1.35;;
34573;SDS011;20809;49.594;8.734;2023-01-15T03:11:12;2.47;;;0.88;;
34573;SDS011;20809;49.594;8.734;2023-01-15T03:14:15;0.20;;;0.20;;
34573;SDS011;20809;49.594;8.734;2023-01-15T03:17:27;0.17;;;0.10;;
34573;SDS011;20809;49.594;8.734;2023-01-15T03:20:49;0.25;;;0.10;;
34573;SDS011;20809;49.594;8.734;2023-01-15T03:23:54;0.47;;;0.20;;
34573;SDS011;20809;49.594;8.734;2023-01-15T03:26:57;0.32;;;0.20;;
34573;SDS011;20809;49.594;8.734;2023-01-15T03:30:00;0.10;;;0.10;;
34573;SDS011;20809;49.594;8.734;2023-01-15T03:33:12;2.45;;;0.20;;
34573;SDS011;20809;49.594;8.734;2023-01-15T03:36:14;0.47;;;0.10;;
34573;SDS011;20809;49.594;8.734;2023-01-15T03:39:14;0.10;;;0.10;;
34573;SDS011;20809;49.594;8.734;2023-01-15T03:45:43;0.10;;;0.10;;
34573;SDS011;20809;49.594;8.734;2023-01-15T03:58:50;0.52;;;0.40;;
34573;SDS011;20809;49.594;8.734;2023-01-15T04:01:55;1.52;;;0.25;;
34573;SDS011;20809;49.594;8.734;2023-01-15T04:04:57;0.30;;;0.30;;
34573;SDS011;20809;49.594;8.734;2023-01-15T04:07:59;0.40;;;0.20;;
34573;SDS011;20809;49.594;8.734;2023-01-15T04:11:01;0.45;;;0.30;;
34573;SDS011;20809;49.594;8.734;2023-01-15T04:14:02;0.38;;;0.35;;
34573;SDS011;20809;49.594;8.734;2023-01-15T04:17:03;2.55;;;0.52;;
34573;SDS011;20809;49.594;8.734;2023-01-15T04:20:04;0.40;;;0.30;;
34573;SDS011;20809;49.594;8.734;2023-01-15T04:23:05;0.25;;;0.17;;
34573;SDS011;20809;49.594;8.734;2023-01-15T04:26:06;0.50;;;0.20;;
34573;SDS011;20809;49.594;8.734;2023-01-15T04:29:07;0.93;;;0.45;;
34573;SDS011;20809;49.594;8.734;2023-01-15T04:32:07;0.30;;;0.30;;
34573;SDS011;20809;49.594;8.734;2023-01-15T04:35:08;0.63;;;0.22;;
34573;SDS011;20809;49.594;8.734;2023-01-15T04:38:09;0.20;;;0.10;;
34573;SDS011;20809;49.594;8.734;2023-01-15T04:41:09;1.40;;;0.15;;
34573;SDS011;20809;49.594;8.734;2023-01-15T04:44:29;0.80;;;0.73;;
34573;SDS011;20809;49.594;8.734;2023-01-15T04:47:31;0.73;;;0.15;;
34573;SDS011;20809;49.594;8.734;2023-01-15T04:50:32;0.10;;;0.10;;
34573;SDS011;20809;49.594;8.734;2023-01-15T04:53:33;0.15;;;0.10;;
34573;SDS011;20809;49.594;8.734;2023-01-15T04:56:38;1.08;;;0.17;;
34573;SDS011;20809;49.594;8.734;2023-01-15T04:59:41;1.10;;;0.20;;
34573;SDS011;20809;49.594;8.734;2023-01-15T05:02:42;0.70;;;0.17;;
34573;SDS011;20809;49.594;8.734;2023-01-15T05:05:43;1.80;;;0.32;;
34573;SDS011;20809;49.594;8.734;2023-01-15T05:08:44;0.08;;;0.00;;
34573;SDS011;20809;49.594;8.734;2023-01-15T05:11:44;0.00;;;0.00;;
34573;SDS011;20809;49.594;8.734;2023-01-15T05:14:45;0.68;;;0.10;;
34573;SDS011;20809;49.594;8.734;2023-01-15T05:17:46;0.43;;;0.03;;
34573;SDS011;20809;49.594;8.734;2023-01-15T05:20:47;0.00;;;0.00;;
34573;SDS011;20809;49.594;8.734;2023-01-15T05:23:48;0.30;;;0.10;;
34573;SDS011;20809;49.594;8.734;2023-01-15T05:26:51;0.03;;;0.00;;
34573;SDS011;20809;49.594;8.734;2023-01-15T05:29:51;0.20;;;0.20;;
34573;SDS011;20809;49.594;8.734;2023-01-15T05:32:52;0.10;;;0.10;;
34573;SDS011;20809;49.594;8.734;2023-01-15T05:35:53;0.10;;;0.10;;
34573;SDS011;20809;49.594;8.734;2023-01-15T05:38:54;0.10;;;0.10;;
34573;SDS011;20809;49.594;8.734;2023-01-15T05:41:57;0.05;;;0.05;;
34573;SDS011;20809;49.594;8.734;2023-01-15T05:44:57;0.40;;;0.10;;
34573;SDS011;20809;49.594;8.734;2023-01-15T05:47:58;0.13;;;0.10;;
34573;SDS011;20809;49.594;8.734;2023-01-15T05:51:00;0.30;;;0.30;;
34573;SDS011;20809;49.594;8.734;2023-01-15T05:54:01;1.42;;;0.70;;
34573;SDS011;20809;49.594;8.734;2023-01-15T05:57:02;0.40;;;0.40;;
34573;SDS011;20809;49.594;8.734;2023-01-15T06:00:03;0.40;;;0.40;;
34573;SDS011;20809;49.594;8.734;2023-01-15T06:03:05;0.47;;;0.30;;
34573;SDS011;20809;49.594;8.734;2023-01-15T06:06:06;1.08;;;0.30;;
34573;SDS011;20809;49.594;8.734;2023-01-15T06:09:11;0.22;;;0.20;;
34573;SDS011;20809;49.594;8.734;2023-01-15T06:12:12;0.77;;;0.70;;
34573;SDS011;20809;49.594;8.734;2023-01-15T06:15:13;1.27;;;1.15;;
34573;SDS011;20809;49.594;8.734;2023-01-15T06:18:14;1.70;;;1.60;;
34573;SDS011;20809;49.594;8.734;2023-01-15T06:21:14;1.38;;;1.27;;
34573;SDS011;20809;49.594;8.734;2023-01-15T06:24:15;2.28;;;1.98;;
34573;SDS011;20809;49.594;8.734;2023-01-15T06:27:16;2.15;;;1.90;;
34573;SDS011;20809;49.594;8.734;2023-01-15T06:30:17;1.30;;;1.20;;
34573;SDS011;20809;49.594;8.734;2023-01-15T06:33:20;1.40;;;1.30;;
34573;SDS011;20809;49.594;8.734;2023-01-15T06:36:24;1.40;;;1.30;;
34573;SDS011;20809;49.594;8.734;2023-01-15T06:39:28;1.00;;;0.90;;
34573;SDS011;20809;49.594;8.734;2023-01-15T06:42:31;0.73;;;0.73;;
34573;SDS011;20809;49.594;8.734;2023-01-15T06:45:50;2.35;;;0.40;;
34573;SDS011;20809;49.594;8.734;2023-01-15T06:49:10;0.30;;;0.30;;
34573;SDS011;20809;49.594;8.734;2023-01-15T06:52:13;0.30;;;0.30;;
34573;SDS011;20809;49.594;8.734;2023-01-15T06:55:14;0.20;;;0.20;;
34573;SDS011;20809;49.594;8.734;2023-01-15T06:58:18;0.20;;;0.20;;
34573;SDS011;20809;49.594;8.734;2023-01-15T07:01:21;3.15;;;2.03;;
34573;SDS011;20809;49.594;8.734;2023-01-15T07:04:21;0.50;;;0.43;;
34573;SDS011;20809;49.594;8.734;2023-01-15T07:07:22;0.10;;;0.10;;
34573;SDS011;20809;49.594;8.734;2023-01-15T07:10:23;0.20;;;0.20;;
34573;SDS011;20809;49.594;8.734;2023-01-15T07:13:23;0.30;;;0.30;;
34573;SDS011;20809;49.594;8.734;2023-01-15T07:16:24;0.40;;;0.30;;
34573;SDS011;20809;49.594;8.734;2023-01-15T07:19:27;0.20;;;0.20;;
34573;SDS011;20809;49.594;8.734;2023-01-15T07:22:28;0.30;;;0.30;;
34573;SDS011;20809;49.594;8.734;2023-01-15T07:25:29;1.25;;;0.40;;
34573;SDS011;20809;49.594;8.734;2023-01-15T07:28:30;0.40;;;0.40;;
34573;SDS011;20809;49.594;8.734;2023-01-15T07:31:30;1.17;;;0.50;;
34573;SDS011;20809;49.594;8.734;2023-01-15T07:34:31;0.93;;;0.35;;
34573;SDS011;20809;49.594;8.734;2023-01-15T07:37:32;0.88;;;0.60;;
34573;SDS011;20809;49.594;8.734;2023-01-15T07:40:33;0.40;;;0.40;;
34573;SDS011;20809;49.594;8.734;2023-01-15T07:43:33;0.55;;;0.45;;
34573;SDS011;20809;49.594;8.734;2023-01-15T07:46:53;1.23;;;0.60;;
34573;SDS011;20809;49.594;8.734;2023-01-15T07:50:13;0.80;;;0.70;;
34573;SDS011;20809;49.594;8.734;2023-01-15T07:53:16;0.82;;;0.60;;
34573;SDS011;20809;49.594;8.734;2023-01-15T07:56:16;0.63;;;0.63;;
34573;SDS011;20809;49.594;8.734;2023-01-15T07:59:17;0.32;;;0.32;;
34573;SDS011;20809;49.594;8.734;2023-01-15T08:05:19;0.77;;;0.70;;
34573;SDS011;20809;49.594;8.734;2023-01-15T08:08:20;1.85;;;1.75;;
34573;SDS011;20809;49.594;8.734;2023-01-15T08:11:21;2.05;;;1.95;;
34573;SDS011;20809;49.594;8.734;2023-01-15T08:14:40;2.83;;;2.25;;
34573;SDS011;20809;49.594;8.734;2023-01-15T08:17:59;1.55;;;1.42;;
34573;SDS011;20809;49.594;8.734;2023-01-15T08:21:00;1.88;;;1.52;;
34573;SDS011;20809;49.594;8.734;2023-01-15T08:24:01;1.88;;;1.65;;
34573;SDS011;20809;49.594;8.734;2023-01-15T08:27:02;1.42;;;0.90;;
34573;SDS011;20809;49.594;8.734;2023-01-15T08:30:04;1.25;;;0.57;;
34573;SDS011;20809;49.594;8.734;2023-01-15T08:33:06;1.40;;;0.88;;
34573;SDS011;20809;49.594;8.734;2023-01-15T08:36:07;2.30;;;1.00;;
34573;SDS011;20809;49.594;8.734;2023-01-15T08:39:08;1.02;;;0.60;;
34573;SDS011;20809;49.594;8.734;2023-01-15T08:42:09;0.30;;;0.30;;
34573;SDS011;20809;49.594;8.734;2023-01-15T08:45:10;0.38;;;0.30;;
34573;SDS011;20809;49.594;8.734;2023-01-15T08:48:11;3.83;;;0.38;;
34573;SDS011;20809;49.594;8.734;2023-01-15T08:51:11;0.40;;;0.40;;
34573;SDS011;20809;49.594;8.734;2023-01-15T08:54:12;0.30;;;0.30;;
34573;SDS011;20809;49.594;8.734;2023-01-15T08:57:13;0.63;;;0.28;;
34573;SDS011;20809;49.594;8.734;2023-01-15T09:00:14;2.83;;;1.30;;
34573;SDS011;20809;49.594;8.734;2023-01-15T09:03:15;0.90;;;0.52;;
34573;SDS011;20809;49.594;8.734;2023-01-15T09:06:15;0.15;;;0.15;;
34573;SDS011;20809;49.594;8.734;2023-01-15T09:09:16;0.10;;;0.10;;
34573;SDS011;20809;49.594;8.734;2023-01-15T09:12:17;0.43;;;0.20;;
34573;SDS011;20809;49.594;8.734;2023-01-15T09:15:18;1.60;;;0.30;;
34573;SDS011;20809;49.594;8.734;2023-01-15T09:18:19;0.32;;;0.30;;
34573;SDS011;20809;49.594;8.734;2023-01-15T09:21:20;0.28;;;0.20;;
34573;SDS011;20809;49.594;8.734;2023-01-15T09:24:20;0.52;;;0.40;;
34573;SDS011;20809;49.594;8.734;2023-01-15T09:27:21;0.65;;;0.20;;
34573;SDS011;20809;49.594;8.734;2023-01-15T09:30:22;1.83;;;0.30;;
34573;SDS011;20809;49.594;8.734;2023-01-15T09:33:23;0.63;;;0.40;;
34573;SDS011;20809;49.594;8.734;2023-01-15T09:36:28;1.02;;;0.50;;
34573;SDS011;20809;49.594;8.734;2023-01-15T09:39:33;0.52;;;0.40;;
34573;SDS011;20809;49.594;8.734;2023-01-15T09:42:55;2.13;;;1.60;;
34573;SDS011;20809;49.594;8.734;2023-01-15T09:46:15;2.28;;;0.50;;
34573;SDS011;20809;49.594;8.734;2023-01-15T09:55:50;0.85;;;0.50;;
34573;SDS011;20809;49.594;8.734;2023-01-15T09:58:54;0.82;;;0.50;;
34573;SDS011;20809;49.594;8.734;2023-01-15T10:01:57;1.02;;;0.70;;
34573;SDS011;20809;49.594;8.734;2023-01-15T10:08:19;1.10;;;0.45;;
34573;SDS011;20809;49.594;8.734;2023-01-15T10:11:28;1.30;;;0.60;;
34573;SDS011;20809;49.594;8.734;2023-01-15T10:18:00;1.08;;;0.65;;
34573;SDS011;20809;49.594;8.734;2023-01-15T10:24:39;0.88;;;0.60;;
34573;SDS011;20809;49.594;8.734;2023-01-15T10:27:45;1.45;;;0.50;;
34573;SDS011;20809;49.594;8.734;2023-01-15T10:30:50;1.95;;;0.40;;
34573;SDS011;20809;49.594;8.734;2023-01-15T10:40:57;0.80;;;0.50;;
34573;SDS011;20809;49.594;8.734;2023-01-15T10:47:17;1.08;;;0.10;;
34573;SDS011;20809;49.594;8.734;2023-01-15T10:50:22;1.33;;;0.43;;
34573;SDS011;20809;49.594;8.734;2023-01-15T10:53:39;0.95;;;0.55;;
34573;SDS011;20809;49.594;8.734;2023-01-15T10:59:55;0.30;;;0.10;;
34573;SDS011;20809;49.594;8.734;2023-01-15T11:03:01;0.40;;;0.10;;
34573;SDS011;20809;49.594;8.734;2023-01-15T11:06:20;0.40;;;0.10;;
34573;SDS011;20809;49.594;8.734;2023-01-15T11:09:23;0.40;;;0.10;;
34573;SDS011;20809;49.594;8.734;2023-01-15T11:12:32;0.52;;;0.20;;
34573;SDS011;20809;49.594;8.734;2023-01-15T11:15:52;0.20;;;0.20;;
34573;SDS011;20809;49.594;8.734;2023-01-15T11:19:34;1.13;;;0.50;;
34573;SDS011;20809;49.594;8.734;2023-01-15T11:22:38;1.17;;;0.73;;
34573;SDS011;20809;49.594;8.734;2023-01-15T11:25:46;3.55;;;0.28;;
34573;SDS011;20809;49.594;8.734;2023-01-15T11:28:58;0.70;;;0.20;;
34573;SDS011;20809;49.594;8.734;2023-01-15T11:32:30;0.45;;;0.20;;
34573;SDS011;20809;49.594;8.734;2023-01-15T11:35:32;0.30;;;0.30;;
34573;SDS011;20809;49.594;8.734;2023-01-15T11:38:44;2.92;;;0.63;;
34573;SDS011;20809;49.594;8.734;2023-01-15T11:41:46;1.95;;;0.30;;
34573;SDS011;20809;49.594;8.734;2023-01-15T11:45:16;0.85;;;0.20;;
34573;SDS011;20809;49.594;8.734;2023-01-15T11:48:44;0.10;;;0.10;;
34573;SDS011;20809;49.594;8.734;2023-01-15T11:52:05;0.85;;;0.20;;
34573;SDS011;20809;49.594;8.734;2023-01-15T11:55:11;0.85;;;0.30;;
34573;SDS011;20809;49.594;8.734;2023-01-15T11:58:14;0.65;;;0.30;;
34573;SDS011;20809;49.594;8.734;2023-01-15T12:04:54;3.08;;;0.28;;
34573;SDS011;20809;49.594;8.734;2023-01-15T12:08:03;2.17;;;0.40;;
34573;SDS011;20809;49.594;8.734;2023-01-15T12:31:13;3.40;;;0.95;;
34573;SDS011;20809;49.594;8.734;2023-01-15T12:37:26;5.32;;;1.85;;
34573;SDS011;20809;49.594;8.734;2023-01-15T12:40:34;1.90;;;1.75;;
34573;SDS011;20809;49.594;8.734;2023-01-15T12:47:09;1.85;;;1.75;;
34573;SDS011;20809;49.594;8.734;2023-01-15T12:53:41;4.13;;;1.15;;
34573;SDS011;20809;49.594;8.734;2023-01-15T13:03:39;1.00;;;0.77;;
34573;SDS011;20809;49.594;8.734;2023-01-15T13:10:41;1.52;;;0.52;;
34573;SDS011;20809;49.594;8.734;2023-01-15T13:13:43;0.93;;;0.40;;
34573;SDS011;20809;49.594;8.734;2023-01-15T13:16:58;0.63;;;0.40;;
34573;SDS011;20809;49.594;8.734;2023-01-15T13:29:52;2.35;;;1.20;;
34573;SDS011;20809;49.594;8.734;2023-01-15T13:33:26;3.85;;;2.03;;
34573;SDS011;20809;49.594;8.734;2023-01-15T13:36:34;3.17;;;2.42;;
34573;SDS011;20809;49.594;8.734;2023-01-15T13:39:41;3.53;;;1.65;;
34573;SDS011;20809;49.594;8.734;2023-01-15T13:42:45;2.88;;;1.10;;
34573;SDS011;20809;49.594;8.734;2023-01-15T13:45:48;3.97;;;2.40;;
34573;SDS011;20809;49.594;8.734;2023-01-15T13:48:49;1.73;;;1.10;;
34573;SDS011;20809;49.594;8.734;2023-01-15T13:51:51;1.98;;;0.75;;
34573;SDS011;20809;49.594;8.734;2023-01-15T13:54:52;2.08;;;0.65;;
34573;SDS011;20809;49.594;8.734;2023-01-15T13:57:55;1.23;;;0.80;;
34573;SDS011;20809;49.594;8.734;2023-01-15T14:04:30;0.90;;;0.50;;
34573;SDS011;20809;49.594;8.734;2023-01-15T14:07:36;2.00;;;0.50;;
34573;SDS011;20809;49.594;8.734;2023-01-15T14:10:37;7.38;;;0.80;;
34573;SDS011;20809;49.594;8.734;2023-01-15T14:13:48;2.53;;;0.77;;
34573;SDS011;20809;49.594;8.734;2023-01-15T14:34:11;4.22;;;0.82;;
34573;SDS011;20809;49.594;8.734;2023-01-15T14:40:23;3.60;;;1.33;;
34573;SDS011;20809;49.594;8.734;2023-01-15T14:43:29;1.33;;;0.90;;
34573;SDS011;20809;49.594;8.734;2023-01-15T14:46:32;3.85;;;1.83;;
34573;SDS011;20809;49.594;8.734;2023-01-15T14:49:43;6.80;;;1.48;;
34573;SDS011;20809;49.594;8.734;2023-01-15T14:52:49;5.32;;;1.48;;
34573;SDS011;20809;49.594;8.734;2023-01-15T14:56:05;5.50;;;2.42;;
34573;SDS011;20809;49.594;8.734;2023-01-15T15:02:23;5.50;;;2.17;;
34573;SDS011;20809;49.594;8.734;2023-01-15T15:05:31;6.90;;;2.03;;
34573;SDS011;20809;49.594;8.734;2023-01-15T15:08:34;1.70;;;0.98;;
34573;SDS011;20809;49.594;8.734;2023-01-15T15:11:37;4.05;;;1.50;;
34573;SDS011;20809;49.594;8.734;2023-01-15T15:21:13;3.35;;;1.17;;
34573;SDS011;20809;49.594;8.734;2023-01-15T15:24:28;3.38;;;1.00;;
34573;SDS011;20809;49.594;8.734;2023-01-15T15:27:33;1.52;;;0.88;;
34573;SDS011;20809;49.594;8.734;2023-01-15T15:30:34;5.10;;;1.40;;
34573;SDS011;20809;49.594;8.734;2023-01-15T15:33:39;2.75;;;1.27;;
34573;SDS011;20809;49.594;8.734;2023-01-15T15:36:41;3.00;;;0.95;;
34573;SDS011;20809;49.594;8.734;2023-01-15T15:39:52;2.97;;;0.98;;
34573;SDS011;20809;49.594;8.734;2023-01-15T15:46:34;3.23;;;0.90;;
34573;SDS011;20809;49.594;8.734;2023-01-15T15:49:54;2.03;;;0.85;;
34573;SDS011;20809;49.594;8.734;2023-01-15T15:52:55;3.15;;;0.98;;
34573;SDS011;20809;49.594;8.734;2023-01-15T15:55:57;4.43;;;1.33;;
34573;SDS011;20809;49.594;8.734;2023-01-15T15:58:59;3.35;;;1.00;;
34573;SDS011;20809;49.594;8.734;2023-01-15T16:02:14;3.13;;;1.02;;
34573;SDS011;20809;49.594;8.734;2023-01-15T16:08:19;3.72;;;1.25;;
34573;SDS011;20809;49.594;8.734;2023-01-15T16:11:20;3.00;;;0.60;;
34573;SDS011;20809;49.594;8.734;2023-01-15T16:14:24;3.30;;;1.23;;
34573;SDS011;20809;49.594;8.734;2023-01-15T16:17:33;3.05;;;0.65;;
34573;SDS011;20809;49.594;8.734;2023-01-15T16:20:36;4.18;;;1.30;;
34573;SDS011;20809;49.594;8.734;2023-01-15T16:23:38;3.10;;;1.05;;
34573;SDS011;20809;49.594;8.734;2023-01-15T16:26:42;4.50;;;0.88;;
34573;SDS011;20809;49.594;8.734;2023-01-15T16:29:47;1.08;;;0.50;;
34573;SDS011;20809;49.594;8.734;2023-01-15T16:32:50;4.07;;;1.00;;
34573;SDS011;20809;49.594;8.734;2023-01-15T16:35:58;4.03;;;2.15;;
34573;SDS011;20809;49.594;8.734;2023-01-15T16:39:04;3.03;;;0.50;;
34573;SDS011;20809;49.594;8.734;2023-01-15T16:42:21;3.28;;;0.70;;
34573;SDS011;20809;49.594;8.734;2023-01-15T16:45:27;2.22;;;0.75;;
34573;SDS011;20809;49.594;8.734;2023-01-15T16:48:30;1.42;;;0.70;;
34573;SDS011;20809;49.594;8.734;2023-01-15T16:51:37;3.70;;;0.70;;
34573;SDS011;20809;49.594;8.734;2023-01-15T16:54:42;4.07;;;1.20;;
34573;SDS011;20809;49.594;8.734;2023-01-15T16:57:44;4.75;;;1.23;;
34573;SDS011;20809;49.594;8.734;2023-01-15T17:00:45;2.95;;;0.50;;
34573;SDS011;20809;49.594;8.734;2023-01-15T17:03:48;3.10;;;1.02;;
34573;SDS011;20809;49.594;8.734;2023-01-15T17:07:14;4.15;;;1.20;;
34573;SDS011;20809;49.594;8.734;2023-01-15T17:10:23;3.38;;;0.77;;
34573;SDS011;20809;49.594;8.734;2023-01-15T17:13:33;3.10;;;0.75;;
34573;SDS011;20809;49.594;8.734;2023-01-15T17:16:36;2.58;;;0.43;;
34573;SDS011;20809;49.594;8.734;2023-01-15T17:19:37;1.48;;;0.65;;
34573;SDS011;20809;49.594;8.734;2023-01-15T17:22:42;3.03;;;0.70;;
34573;SDS011;20809;49.594;8.734;2023-01-15T17:25:44;5.22;;;0.88;;
34573;SDS011;20809;49.594;8.734;2023-01-15T17:28:47;2.70;;;0.88;;
34573;SDS011;20809;49.594;8.734;2023-01-15T17:31:48;3.05;;;0.75;;
34573;SDS011;20809;49.594;8.734;2023-01-15T17:34:48;5.75;;;1.15;;
34573;SDS011;20809;49.594;8.734;2023-01-15T17:37:49;3.97;;;0.80;;
34573;SDS011;20809;49.594;8.734;2023-01-15T17:40:50;2.75;;;0.60;;
34573;SDS011;20809;49.594;8.734;2023-01-15T17:43:54;2.67;;;0.40;;
34573;SDS011;20809;49.594;8.734;2023-01-15T17:46:55;3.75;;;0.82;;
34573;SDS011;20809;49.594;8.734;2023-01-15T17:49:56;2.40;;;0.52;;
34573;SDS011;20809;49.594;8.734;2023-01-15T17:52:56;2.70;;;0.90;;
34573;SDS011;20809;49.594;8.734;2023-01-15T17:55:57;2.55;;;0.90;;
34573;SDS011;20809;49.594;8.734;2023-01-15T17:59:16;2.13;;;0.95;;
34573;SDS011;20809;49.594;8.734;2023-01-15T18:02:36;2.17;;;0.75;;
34573;SDS011;20809;49.594;8.734;2023-01-15T18:05:56;5.95;;;2.50;;
34573;SDS011;20809;49.594;8.734;2023-01-15T18:08:57;1.77;;;0.73;;
34573;SDS011;20809;49.594;8.734;2023-01-15T18:11:59;2.33;;;0.70;;
34573;SDS011;20809;49.594;8.734;2023-01-15T18:15:00;3.40;;;1.13;;
34573;SDS011;20809;49.594;8.734;2023-01-15T18:18:01;7.10;;;1.40;;
34573;SDS011;20809;49.594;8.734;2023-01-15T18:21:02;2.00;;;0.77;;
34573;SDS011;20809;49.594;8.734;2023-01-15T18:27:04;2.60;;;0.70;;
34573;SDS011;20809;49.594;8.734;2023-01-15T18:30:05;1.70;;;0.50;;
34573;SDS011;20809;49.594;8.734;2023-01-15T18:36:11;2.33;;;1.43;;
34573;SDS011;20809;49.594;8.734;2023-01-15T18:39:13;3.17;;;1.20;;
34573;SDS011;20809;49.594;8.734;2023-01-15T18:42:14;3.15;;;0.70;;
34573;SDS011;20809;49.594;8.734;2023-01-15T18:45:14;3.42;;;1.05;;
34573;SDS011;20809;49.594;8.734;2023-01-15T18:48:34;2.90;;;0.77;;
34573;SDS011;20809;49.594;8.734;2023-01-15T18:51:37;1.33;;;0.70;;
34573;SDS011;20809;49.594;8.734;2023-01-15T18:54:38;5.13;;;1.58;;
34573;SDS011;20809;49.594;8.734;2023-01-15T18:57:39;2.20;;;0.57;;
34573;SDS011;20809;49.594;8.734;2023-01-15T19:00:40;3.05;;;0.90;;
34573;SDS011;20809;49.594;8.734;2023-01-15T19:03:40;1.52;;;0.85;;
34573;SDS011;20809;49.594;8.734;2023-01-15T19:06:41;3.15;;;0.98;;
34573;SDS011;20809;49.594;8.734;2023-01-15T19:09:48;4.15;;;0.98;;
34573;SDS011;20809;49.594;8.734;2023-01-15T19:12:48;2.38;;;0.60;;
34573;SDS011;20809;49.594;8.734;2023-01-15T19:15:52;2.67;;;0.75;;
34573;SDS011;20809;49.594;8.734;2023-01-15T19:19:14;4.70;;;2.42;;
34573;SDS011;20809;49.594;8.734;2023-01-15T19:22:18;0.88;;;0.55;;
34573;SDS011;20809;49.594;8.734;2023-01-15T19:28:40;3.17;;;1.00;;
34573;SDS011;20809;49.594;8.734;2023-01-15T19:31:40;4.00;;;1.25;;
34573;SDS011;20809;49.594;8.734;2023-01-15T19:34:41;3.45;;;1.08;;
34573;SDS011;20809;49.594;8.734;2023-01-15T19:37:44;1.20;;;0.50;;
34573;SDS011;20809;49.594;8.734;2023-01-15T19:40:45;6.72;;;2.88;;
34573;SDS011;20809;49.594;8.734;2023-01-15T19:43:46;3.35;;;1.85;;
34573;SDS011;20809;49.594;8.734;2023-01-15T19:47:15;3.58;;;1.02;;
34573;SDS011;20809;49.594;8.734;2023-01-15T19:50:41;1.60;;;0.98;;
34573;SDS011;20809;49.594;8.734;2023-01-15T19:53:44;4.00;;;2.17;;
34573;SDS011;20809;49.594;8.734;2023-01-15T19:56:44;3.38;;;1.02;;
34573;SDS011;20809;49.594;8.734;2023-01-15T19:59:48;3.90;;;0.80;;
34573;SDS011;20809;49.594;8.734;2023-01-15T20:02:49;1.13;;;0.60;;
34573;SDS011;20809;49.594;8.734;2023-01-15T20:05:50;4.32;;;0.73;;
34573;SDS011;20809;49.594;8.734;2023-01-15T20:08:51;4.15;;;1.02;;
34573;SDS011;20809;49.594;8.734;2023-01-15T20:11:54;2.13;;;0.80;;
34573;SDS011;20809;49.594;8.734;2023-01-15T20:15:13;3.72;;;1.08;;
34573;SDS011;20809;49.594;8.734;2023-01-15T20:18:14;4.35;;;0.85;;
34573;SDS011;20809;49.594;8.734;2023-01-15T20:21:16;4.55;;;0.70;;
34573;SDS011;20809;49.594;8.734;2023-01-15T20:24:20;3.53;;;1.00;;
34573;SDS011;20809;49.594;8.734;2023-01-15T20:27:22;2.97;;;0.80;;
34573;SDS011;20809;49.594;8.734;2023-01-15T20:30:23;2.45;;;0.90;;
34573;SDS011;20809;49.594;8.734;2023-01-15T20:33:27;8.85;;;2.03;;
34573;SDS011;20809;49.594;8.734;2023-01-15T20:36:27;5.03;;;1.00;;
34573;SDS011;20809;49.594;8.734;2023-01-15T20:39:32;6.72;;;1.08;;
34573;SDS011;20809;49.594;8.734;2023-01-15T20:42:33;3.50;;;1.05;;
34573;SDS011;20809;49.594;8.734;2023-01-15T20:45:53;6.03;;;1.05;;
34573;SDS011;20809;49.594;8.734;2023-01-15T20:48:55;2.22;;;0.70;;
34573;SDS011;20809;49.594;8.734;2023-01-15T20:52:17;4.90;;;1.70;;
34573;SDS011;20809;49.594;8.734;2023-01-15T20:55:18;2.83;;;0.75;;
34573;SDS011;20809;49.594;8.734;2023-01-15T20:58:21;2.50;;;0.60;;
34573;SDS011;20809;49.594;8.734;2023-01-15T21:01:22;1.27;;;1.17;;
34573;SDS011;20809;49.594;8.734;2023-01-15T21:04:23;4.72;;;0.98;;
34573;SDS011;20809;49.594;8.734;2023-01-15T21:07:24;3.20;;;0.68;;
34573;SDS011;20809;49.594;8.734;2023-01-15T21:10:25;2.35;;;0.95;;
34573;SDS011;20809;49.594;8.734;2023-01-15T21:13:26;6.93;;;2.20;;
34573;SDS011;20809;49.594;8.734;2023-01-15T21:16:27;4.25;;;0.73;;
34573;SDS011;20809;49.594;8.734;2023-01-15T21:19:27;2.03;;;0.70;;
34573;SDS011;20809;49.594;8.734;2023-01-15T21:22:28;3.50;;;0.80;;
34573;SDS011;20809;49.594;8.734;2023-01-15T21:25:29;6.57;;;0.82;;